createdAt,value
2017-09-16T00:00:20.303Z,22.90
2017-09-16T00:02:51.505Z,22.91
2017-09-16T00:05:22.487Z,22.93
2017-09-16T00:07:54.130Z,22.91
2017-09-16T00:10:25.605Z,23.00
2017-09-16T00:12:56.720Z,23.00
2017-09-16T00:15:27.747Z,22.51
2017-09-16T00:17:59.096Z,22.93
2017-09-16T00:20:35.831Z,22.75
2017-09-16T00:23:07.610Z,22.86
2017-09-16T00:25:41.767Z,22.89
2017-09-16T00:28:12.713Z,22.97
2017-09-16T00:30:44.273Z,23.03
2017-09-16T00:33:15.320Z,23.01
2017-09-16T00:35:46.456Z,22.88
2017-09-16T00:38:17.766Z,22.91
2017-09-16T00:40:48.782Z,22.82
2017-09-16T00:43:20.207Z,22.78
2017-09-16T00:45:51.717Z,22.87
2017-09-16T00:48:22.709Z,22.97
2017-09-16T00:50:53.774Z,23.06
2017-09-16T00:53:25.656Z,23.06
2017-09-16T00:55:56.513Z,22.93
2017-09-16T00:58:27.897Z,23.08
2017-09-16T01:00:58.856Z,23.11
2017-09-16T01:03:30.678Z,23.14
2017-09-16T01:06:02.018Z,23.12
2017-09-16T01:08:33.012Z,23.06
2017-09-16T01:11:05.190Z,23.01
2017-09-16T01:13:36.200Z,23.00
2017-09-16T01:16:07.265Z,23.09
2017-09-16T01:18:38.554Z,23.09
2017-09-16T01:21:09.533Z,23.08
2017-09-16T01:23:42.397Z,23.10
2017-09-16T01:26:14.084Z,23.05
2017-09-16T01:28:46.678Z,23.06
2017-09-16T01:31:17.819Z,23.11
2017-09-16T01:33:51.238Z,23.06
2017-09-16T01:36:22.730Z,23.08
2017-09-16T01:38:53.996Z,23.07
2017-09-16T01:41:25.093Z,23.11
2017-09-16T01:43:55.881Z,23.08
2017-09-16T01:46:27.266Z,23.13
2017-09-16T01:48:58.206Z,23.06
2017-09-16T01:51:29.025Z,23.10
2017-09-16T01:54:00.031Z,23.11
2017-09-16T01:56:30.901Z,23.09
2017-09-16T01:59:02.396Z,23.07
2017-09-16T02:01:33.250Z,22.94
2017-09-16T02:04:05.076Z,23.07
2017-09-16T02:06:36.951Z,23.05
2017-09-16T02:09:08.339Z,23.10
2017-09-16T02:11:39.672Z,23.16
2017-09-16T02:14:12.758Z,23.11
2017-09-16T02:16:47.519Z,23.05
2017-09-16T02:19:18.596Z,22.40
2017-09-16T02:21:58.975Z,23.10
2017-09-16T02:30:25.375Z,23.12
2017-09-16T02:32:59.393Z,23.10
2017-09-16T02:35:34.732Z,23.10
2017-09-16T02:38:28.815Z,23.06
2017-09-16T02:46:10.172Z,23.06
2017-09-16T02:51:25.849Z,23.11
2017-09-16T02:56:14.648Z,23.07
2017-09-16T02:58:52.751Z,23.05
2017-09-16T03:01:28.506Z,23.04
2017-09-16T03:04:06.325Z,22.94
2017-09-16T03:07:00.090Z,22.97
2017-09-16T03:10:23.255Z,22.99
2017-09-16T03:12:57.681Z,22.94
2017-09-16T03:15:34.980Z,23.11
2017-09-16T03:18:09.597Z,23.12
2017-09-16T03:20:56.729Z,23.13
2017-09-16T03:23:30.031Z,23.19
2017-09-16T03:26:20.837Z,23.17
2017-09-16T03:29:05.090Z,23.19
2017-09-16T03:31:50.364Z,23.12
2017-09-16T03:34:41.786Z,23.06
2017-09-16T03:37:25.437Z,23.05
2017-09-16T03:39:59.050Z,23.08
2017-09-16T03:42:47.699Z,23.10
2017-09-16T03:45:22.043Z,23.08
2017-09-16T03:47:55.427Z,23.03
2017-09-16T03:50:26.794Z,23.05
2017-09-16T03:53:00.487Z,23.03
2017-09-16T03:55:42.813Z,23.05
2017-09-16T03:58:19.989Z,22.96
2017-09-16T04:01:14.236Z,22.93
2017-09-16T04:03:49.515Z,22.97
2017-09-16T04:06:20.803Z,22.99
2017-09-16T04:09:06.345Z,23.03
2017-09-16T04:16:05.189Z,23.03
2017-09-16T04:22:01.148Z,22.87
2017-09-16T04:24:35.675Z,22.90
2017-09-16T04:27:09.379Z,22.87
2017-09-16T04:29:50.356Z,22.88
2017-09-16T04:32:27.457Z,22.85
2017-09-16T04:35:00.847Z,22.84
2017-09-16T04:37:34.362Z,22.84
2017-09-16T04:40:08.194Z,22.81
2017-09-16T04:42:46.527Z,22.83
2017-09-16T04:45:31.957Z,22.74
2017-09-16T04:48:08.254Z,22.73
2017-09-16T04:50:42.971Z,22.56
2017-09-16T04:53:27.424Z,22.73
2017-09-16T04:56:24.580Z,22.75
2017-09-16T04:59:10.272Z,22.71
2017-09-16T05:01:52.471Z,22.67
2017-09-16T05:04:31.511Z,22.73
2017-09-16T05:07:09.825Z,22.80
2017-09-16T05:09:47.760Z,22.82
2017-09-16T05:12:21.560Z,22.83
2017-09-16T05:14:54.754Z,22.83
2017-09-16T05:17:40.337Z,22.79
2017-09-16T05:23:01.888Z,22.85
2017-09-16T05:25:38.401Z,22.54
2017-09-16T05:41:43.626Z,22.83
2017-09-16T05:44:18.333Z,22.45
2017-09-16T05:46:57.372Z,22.52
2017-09-16T05:49:34.042Z,22.42
2017-09-16T05:52:11.954Z,22.47
2017-09-16T05:54:48.152Z,22.55
2017-09-16T05:57:26.491Z,22.68
2017-09-16T06:00:03.218Z,22.69
2017-09-16T06:02:52.693Z,22.72
2017-09-16T06:05:27.030Z,22.64
2017-09-16T06:08:00.235Z,22.79
2017-09-16T06:10:36.893Z,22.72
2017-09-16T06:13:14.619Z,22.86
2017-09-16T06:15:51.480Z,22.83
2017-09-16T06:18:28.530Z,22.87
2017-09-16T06:21:02.785Z,22.84
2017-09-16T06:26:36.202Z,22.91
2017-09-16T06:29:11.154Z,22.93
2017-09-16T06:31:51.101Z,22.93
2017-09-16T06:34:31.365Z,22.95
2017-09-16T06:39:54.538Z,22.96
2017-09-16T06:42:28.887Z,23.00
2017-09-16T06:45:06.199Z,23.03
2017-09-16T06:47:45.905Z,22.99
2017-09-16T06:50:19.004Z,22.99
2017-09-16T06:52:55.901Z,23.03
2017-09-16T06:55:32.760Z,23.05
2017-09-16T06:58:09.342Z,23.05
2017-09-16T07:00:50.234Z,23.07
2017-09-16T07:03:24.850Z,23.15
2017-09-16T07:06:00.514Z,23.15
2017-09-16T07:11:31.783Z,23.06
2017-09-16T07:17:15.779Z,23.32
2017-09-16T07:19:51.725Z,23.32
2017-09-16T07:22:39.987Z,23.28
2017-09-16T07:25:23.538Z,23.31
2017-09-16T07:28:05.029Z,23.28
2017-09-16T07:33:36.310Z,23.32
2017-09-16T07:36:11.470Z,23.38
2017-09-16T07:38:47.960Z,23.48
2017-09-16T07:41:23.662Z,23.56
2017-09-16T07:43:56.945Z,23.65
2017-09-16T07:46:32.931Z,23.78
2017-09-16T07:49:10.853Z,23.84
2017-09-16T07:51:44.329Z,23.90
2017-09-16T07:54:40.074Z,23.99
2017-09-16T07:57:23.264Z,24.08
2017-09-16T07:59:59.035Z,24.12
2017-09-16T08:02:38.812Z,24.19
2017-09-16T08:05:14.498Z,24.22
2017-09-16T08:08:01.747Z,24.22
2017-09-16T08:10:36.934Z,24.33
2017-09-16T08:13:39.221Z,24.41
2017-09-16T08:16:24.161Z,24.31
2017-09-16T08:19:16.539Z,24.29
2017-09-16T08:21:52.986Z,24.29
2017-09-16T08:24:33.047Z,24.28
2017-09-16T08:27:09.344Z,24.25
2017-09-16T08:29:48.650Z,24.26
2017-09-16T08:32:27.282Z,24.19
2017-09-16T08:35:05.860Z,24.19
2017-09-16T08:37:37.688Z,24.14
2017-09-16T08:40:17.816Z,24.15
2017-09-16T08:42:55.736Z,24.14
2017-09-16T08:45:32.914Z,24.12
2017-09-16T08:48:08.201Z,24.10
2017-09-16T08:50:51.617Z,24.03
2017-09-16T08:53:30.826Z,24.02
2017-09-16T08:56:05.063Z,24.01
2017-09-16T08:58:42.555Z,24.03
2017-09-16T09:01:17.491Z,24.03
2017-09-16T09:03:59.799Z,23.92
2017-09-16T09:09:32.091Z,23.99
2017-09-16T09:12:09.302Z,24.00
2017-09-16T09:14:48.921Z,23.96
2017-09-16T09:17:24.380Z,23.95
2017-09-16T09:20:04.846Z,23.95
2017-09-16T09:22:48.147Z,24.02
2017-09-16T09:25:22.340Z,24.03
2017-09-16T09:28:04.818Z,23.97
2017-09-16T09:30:36.785Z,23.97
2017-09-16T09:33:18.187Z,24.01
2017-09-16T09:35:57.104Z,24.04
2017-09-16T09:38:46.549Z,24.04
2017-09-16T09:41:22.236Z,24.04
2017-09-16T09:43:57.317Z,24.05
2017-09-16T09:46:32.016Z,24.08
